Terminal Aerodrome Forecast
Issued by NWS Cleveland, OH

Home | Current Version | Previous Version | Graphics & Text | Print | Product List | Glossary Off
Versions: 1 2 3 4 5 6 7 8 9 10 11 12 13 14 15 16 17 18 19 20 21

000
FTUS41 KCLE 282100 AAB
TAFMFD
TAF AMD
KMFD 282136Z 2822/2918 34012KT P6SM SCT035 BKN070
     FM290100 32005KT P6SM SCT035
     FM291500 27008KT P6SM BKN035=

USA.gov is the U.S. government's official web portal to all federal, state and local government web resources and services.